createdAt,value
2019-05-03T01:57:41.888Z,72.70
2019-05-03T02:00:12.951Z,72.90
2019-05-03T02:02:43.711Z,72.20
2019-05-03T02:05:32.026Z,72.70
2019-05-03T02:08:02.277Z,73.10
2019-05-03T02:10:32.174Z,73.80
2019-05-03T02:13:01.767Z,75.00
2019-05-03T02:15:32.685Z,75.20
2019-05-03T02:18:03.739Z,75.40
2019-05-03T02:20:32.863Z,75.70
2019-05-03T02:23:02.932Z,76.10
2019-05-03T02:25:33.678Z,77.30
2019-05-03T02:28:04.952Z,76.80
2019-05-03T02:30:34.073Z,76.90
2019-05-03T02:33:04.433Z,75.80
2019-05-03T02:35:33.605Z,76.10
2019-05-03T02:38:05.111Z,75.90
2019-05-03T02:40:34.408Z,76.40
2019-05-03T02:43:06.643Z,76.70
2019-05-03T02:45:46.418Z,77.70
2019-05-03T02:48:26.555Z,77.60
2019-05-03T02:50:56.234Z,78.70
2019-05-03T02:53:26.469Z,78.70
2019-05-03T02:56:13.042Z,78.80
2019-05-03T02:58:27.514Z,79.10
2019-05-03T03:01:03.139Z,79.30
2019-05-03T03:03:36.281Z,78.50
2019-05-03T03:06:06.724Z,78.00
2019-05-03T03:08:36.972Z,77.40
2019-05-03T03:11:07.805Z,78.20
2019-05-03T03:13:37.814Z,77.90
2019-05-03T03:16:08.568Z,78.50
2019-05-03T03:18:39.061Z,77.70
2019-05-03T03:21:11.272Z,77.60
2019-05-03T03:23:49.632Z,78.00
2019-05-03T03:26:33.299Z,77.90
2019-05-03T03:28:55.705Z,77.70
2019-05-03T03:31:49.070Z,78.80
2019-05-03T03:34:21.606Z,78.00
2019-05-03T03:37:00.932Z,78.90
2019-05-03T03:39:25.726Z,79.00
2019-05-03T03:41:55.824Z,78.80
2019-05-03T03:44:25.815Z,75.20
2019-05-03T03:46:56.250Z,74.00
2019-05-03T03:49:26.407Z,74.00
2019-05-03T03:51:56.390Z,74.00
2019-05-03T03:54:26.199Z,72.90
2019-05-03T03:57:03.340Z,73.30
2019-05-03T03:59:27.172Z,74.50
2019-05-03T04:01:57.408Z,73.00
2019-05-03T04:04:26.658Z,72.50
2019-05-03T04:07:00.823Z,72.00
2019-05-03T04:09:26.776Z,72.50
2019-05-03T04:11:56.696Z,74.30
2019-05-03T04:14:30.703Z,74.70
2019-05-03T04:17:02.423Z,73.60
2019-05-03T04:19:36.190Z,73.10
2019-05-03T04:22:05.879Z,73.00
2019-05-03T04:24:35.840Z,73.40
2019-05-03T04:27:17.747Z,75.40
2019-05-03T04:29:36.439Z,73.40
2019-05-03T04:32:06.335Z,73.90
2019-05-03T04:34:36.598Z,74.30
2019-05-03T04:37:05.914Z,75.60
2019-05-03T04:39:35.984Z,75.10
2019-05-03T04:42:06.738Z,76.20
2019-05-03T04:44:36.354Z,75.00
2019-05-03T04:47:07.193Z,76.40
2019-05-03T04:49:36.626Z,77.90
2019-05-03T04:52:06.124Z,76.50
2019-05-03T04:54:45.155Z,75.50
2019-05-03T04:57:17.612Z,75.00
2019-05-03T04:59:45.370Z,76.00
2019-05-03T05:02:15.934Z,75.80
2019-05-03T05:04:46.361Z,75.90
2019-05-03T05:07:15.864Z,75.70
2019-05-03T05:09:45.693Z,75.30
2019-05-03T05:12:16.197Z,76.30
2019-05-03T05:14:45.997Z,76.80
2019-05-03T05:17:16.869Z,77.20
2019-05-03T05:19:54.908Z,77.20
2019-05-03T05:22:26.040Z,77.10
2019-05-03T05:24:56.620Z,76.70
2019-05-03T05:27:48.326Z,76.60
2019-05-03T05:30:08.391Z,77.00
2019-05-03T05:32:37.517Z,77.90
2019-05-03T05:35:06.932Z,77.90
2019-05-03T05:37:36.048Z,78.40
2019-05-03T05:40:06.662Z,77.70
2019-05-03T05:42:35.782Z,77.40
2019-05-03T05:45:06.561Z,77.50
2019-05-03T05:47:37.343Z,77.40
2019-05-03T05:50:08.484Z,77.60
2019-05-03T05:52:37.618Z,77.50
2019-05-03T05:55:12.152Z,77.70
2019-05-03T05:58:01.660Z,77.20
2019-05-03T06:00:21.397Z,76.40
2019-05-03T06:02:50.530Z,75.70
2019-05-03T06:05:19.714Z,76.20
2019-05-03T06:08:07.134Z,75.50
2019-05-03T06:10:37.896Z,73.30
2019-05-03T06:13:15.218Z,69.30
2019-05-03T06:16:02.362Z,69.60
2019-05-03T06:18:38.871Z,70.10
2019-05-03T06:21:15.896Z,67.50
2019-05-03T06:23:52.632Z,68.20
2019-05-03T06:26:41.722Z,66.90
2019-05-03T06:29:10.843Z,65.60
2019-05-03T06:31:55.033Z,64.60
2019-05-03T06:34:25.227Z,63.10
2019-05-03T06:36:56.109Z,64.30
2019-05-03T06:39:25.228Z,64.40
2019-05-03T06:41:55.016Z,65.80
2019-05-03T06:44:28.522Z,66.10
2019-05-03T06:46:55.307Z,65.50
2019-05-03T06:49:25.525Z,65.30
2019-05-03T06:51:54.868Z,64.60
2019-05-03T06:54:28.258Z,63.80
2019-05-03T06:57:00.220Z,62.50
2019-05-03T06:59:45.180Z,62.80
2019-05-03T07:02:35.505Z,64.10
2019-05-03T07:05:10.578Z,62.80
2019-05-03T07:07:50.568Z,62.70
2019-05-03T07:10:31.341Z,63.80
2019-05-03T07:13:02.117Z,62.30
2019-05-03T07:15:31.311Z,60.10
2019-05-03T07:18:00.453Z,61.00
2019-05-03T07:20:31.209Z,60.80
2019-05-03T07:23:00.348Z,59.10
2019-05-03T07:25:29.787Z,58.50
2019-05-03T07:27:58.926Z,59.40
2019-05-03T07:30:28.043Z,58.70
2019-05-03T07:33:04.731Z,58.40
2019-05-03T07:35:35.241Z,57.70
2019-05-03T07:38:05.470Z,57.70
2019-05-03T07:40:35.321Z,57.50
2019-05-03T07:43:04.621Z,57.70
2019-05-03T07:45:35.442Z,56.80
2019-05-03T07:48:04.999Z,57.50
2019-05-03T07:50:35.720Z,57.90
2019-05-03T07:53:05.031Z,57.60
2019-05-03T07:55:50.883Z,57.70
2019-05-03T07:58:25.272Z,57.00
2019-05-03T08:01:05.847Z,57.70
2019-05-03T08:03:26.976Z,55.30
2019-05-03T08:05:56.104Z,56.60
2019-05-03T08:08:25.231Z,54.80
2019-05-03T08:10:54.999Z,56.10
2019-05-03T08:13:25.486Z,55.80
2019-05-03T08:15:55.701Z,54.20
2019-05-03T08:18:25.846Z,54.00
2019-05-03T08:20:55.576Z,54.20
2019-05-03T08:23:29.927Z,54.10
2019-05-03T08:25:55.871Z,54.30
2019-05-03T08:28:24.998Z,54.30
2019-05-03T08:31:12.302Z,55.00
2019-05-03T08:33:58.400Z,54.90
2019-05-03T08:36:27.540Z,54.40
2019-05-03T08:38:56.732Z,54.80
2019-05-03T08:41:28.214Z,53.20
2019-05-03T08:43:57.335Z,53.00
2019-05-03T08:46:26.456Z,53.30
2019-05-03T08:48:55.592Z,52.80
2019-05-03T08:51:25.125Z,52.10
2019-05-03T08:53:55.976Z,52.30
2019-05-03T08:56:25.320Z,52.20
2019-05-03T08:58:55.470Z,52.80
2019-05-03T09:01:25.371Z,51.50
2019-05-03T09:03:55.803Z,51.70
2019-05-03T09:06:25.232Z,51.60
2019-05-03T09:08:57.130Z,53.80
2019-05-03T09:11:33.623Z,52.40
2019-05-03T09:13:57.664Z,52.30
2019-05-03T09:16:26.799Z,51.60
2019-05-03T09:18:55.955Z,52.40
2019-05-03T09:21:25.610Z,53.00
2019-05-03T09:23:55.536Z,52.90
2019-05-03T09:26:29.258Z,50.60
2019-05-03T09:28:55.866Z,50.40
2019-05-03T09:31:25.008Z,49.60
2019-05-03T09:33:55.209Z,49.50
2019-05-03T09:36:25.568Z,49.10
2019-05-03T09:38:55.237Z,48.80
2019-05-03T09:41:25.618Z,49.50
2019-05-03T09:43:55.635Z,50.70
2019-05-03T09:46:26.566Z,49.20
2019-05-03T09:49:03.317Z,49.00
2019-05-03T09:51:26.836Z,49.90
2019-05-03T09:54:00.251Z,49.70
2019-05-03T09:56:55.229Z,48.60
2019-05-03T09:59:18.697Z,48.70
2019-05-03T10:01:47.887Z,50.00
2019-05-03T10:04:18.087Z,50.20
2019-05-03T10:06:47.412Z,48.90
2019-05-03T10:09:17.618Z,48.60
2019-05-03T10:11:46.789Z,48.50
2019-05-03T10:14:15.906Z,47.70
2019-05-03T10:16:55.835Z,48.60
2019-05-03T10:19:37.136Z,48.30
2019-05-03T10:21:55.788Z,48.70
2019-05-03T10:24:24.936Z,48.90
2019-05-03T10:26:55.220Z,47.70
2019-05-03T10:29:25.126Z,46.50
2019-05-03T10:32:05.892Z,47.50
2019-05-03T10:34:35.727Z,47.80
2019-05-03T10:37:06.984Z,48.80
2019-05-03T10:39:36.315Z,47.50
2019-05-03T10:42:05.537Z,47.40
2019-05-03T10:44:35.872Z,47.20
2019-05-03T10:47:05.627Z,46.50
2019-05-03T10:49:35.257Z,46.40
2019-05-03T10:52:06.210Z,47.20
2019-05-03T10:54:35.824Z,48.30
2019-05-03T10:57:06.896Z,47.40
2019-05-03T10:59:36.296Z,48.80
2019-05-03T11:02:22.504Z,48.60
2019-05-03T11:04:52.221Z,46.60
2019-05-03T11:07:21.343Z,46.30
2019-05-03T11:09:52.594Z,46.60
2019-05-03T11:12:21.296Z,44.40
2019-05-03T11:14:50.426Z,45.40
2019-05-03T11:17:19.553Z,44.90
2019-05-03T11:19:49.244Z,46.20
2019-05-03T11:22:18.479Z,46.60
2019-05-03T11:24:47.596Z,46.50
2019-05-03T11:27:24.859Z,47.90
2019-05-03T11:29:55.552Z,46.60
2019-05-03T11:32:30.470Z,47.20
2019-05-03T11:35:04.599Z,47.20
2019-05-03T11:37:50.175Z,45.70
2019-05-03T11:40:20.439Z,44.60
2019-05-03T11:42:50.535Z,43.30
2019-05-03T11:45:19.676Z,43.60
2019-05-03T11:47:49.764Z,43.20
2019-05-03T11:50:18.958Z,42.40
2019-05-03T11:52:48.087Z,43.70
2019-05-03T11:55:17.470Z,46.10
2019-05-03T11:57:46.589Z,44.40
2019-05-03T12:00:18.988Z,42.20
2019-05-03T12:02:52.724Z,43.20
2019-05-03T12:05:24.609Z,42.40
2019-05-03T12:07:54.747Z,42.30
2019-05-03T12:10:36.683Z,42.30
2019-05-03T12:12:59.370Z,40.20
2019-05-03T12:15:28.489Z,41.00
2019-05-03T12:18:06.184Z,41.40
2019-05-03T12:20:37.314Z,41.50
2019-05-03T12:23:07.275Z,40.90
2019-05-03T12:25:37.384Z,41.10
2019-05-03T12:28:07.065Z,39.90
2019-05-03T12:30:36.199Z,38.80
2019-05-03T12:33:06.175Z,38.40
2019-05-03T12:35:35.913Z,38.60
2019-05-03T12:38:05.716Z,37.20
2019-05-03T12:40:35.188Z,35.50
2019-05-03T12:43:06.011Z,35.60
2019-05-03T12:45:35.740Z,36.80
2019-05-03T12:48:05.355Z,37.70
2019-05-03T12:50:34.838Z,38.20
2019-05-03T12:53:04.737Z,38.50
2019-05-03T12:55:35.639Z,39.00
2019-05-03T12:58:06.350Z,40.30
2019-05-03T13:00:47.918Z,40.60
2019-05-03T13:03:16.787Z,40.90
2019-05-03T13:05:45.929Z,42.10
2019-05-03T13:08:35.410Z,42.60
2019-05-03T13:11:05.948Z,43.00
2019-05-03T13:13:35.780Z,42.00
2019-05-03T13:16:05.569Z,41.90
2019-05-03T13:18:35.421Z,42.70
2019-05-03T13:21:06.108Z,39.70
2019-05-03T13:23:35.898Z,39.40
2019-05-03T13:26:05.761Z,39.70
2019-05-03T13:28:35.297Z,38.90
2019-05-03T13:31:05.763Z,37.90
2019-05-03T13:33:35.390Z,37.60
2019-05-03T13:36:05.138Z,39.40
2019-05-03T13:38:35.042Z,39.50
2019-05-03T13:41:06.566Z,40.20
2019-05-03T13:43:35.953Z,40.70
2019-05-03T13:46:06.149Z,41.30
2019-05-03T13:48:45.509Z,41.50
2019-05-03T13:51:06.111Z,41.50
2019-05-03T13:53:35.230Z,41.50
2019-05-03T13:56:05.002Z,42.10
2019-05-03T13:58:35.900Z,43.00
2019-05-03T14:01:05.716Z,41.10
2019-05-03T14:03:35.412Z,41.90
2019-05-03T14:06:08.767Z,42.50
2019-05-03T14:08:36.887Z,41.90
2019-05-03T14:11:06.023Z,41.80
2019-05-03T14:13:35.584Z,42.60
2019-05-03T14:16:05.748Z,42.60
2019-05-03T14:18:35.533Z,42.40
2019-05-03T14:21:15.756Z,42.40
2019-05-03T14:24:04.984Z,42.10
2019-05-03T14:26:35.124Z,43.30
2019-05-03T14:29:05.715Z,44.50
2019-05-03T14:31:34.973Z,44.70
2019-05-03T14:34:05.953Z,44.40
2019-05-03T14:36:35.898Z,44.20
2019-05-03T14:39:09.492Z,44.40
2019-05-03T14:41:37.767Z,44.20
2019-05-03T14:44:06.880Z,42.30
2019-05-03T14:46:36.353Z,42.40
2019-05-03T14:49:06.951Z,43.30
2019-05-03T14:51:36.083Z,44.90
2019-05-03T14:54:05.975Z,44.60
2019-05-03T14:56:36.748Z,43.30
2019-05-03T14:59:23.883Z,44.10
2019-05-03T15:02:11.075Z,44.80
2019-05-03T15:04:40.659Z,45.20
2019-05-03T15:07:09.791Z,45.10
2019-05-03T15:09:39.883Z,45.10
2019-05-03T15:12:09.011Z,43.20
2019-05-03T15:14:38.140Z,43.60
2019-05-03T15:17:07.572Z,42.80
2019-05-03T15:19:37.782Z,42.50
2019-05-03T15:22:07.940Z,42.30
2019-05-03T15:24:37.067Z,42.20
2019-05-03T15:27:06.194Z,42.70
2019-05-03T15:29:35.589Z,42.40
2019-05-03T15:32:05.186Z,42.30
2019-05-03T15:34:35.389Z,42.50
2019-05-03T15:37:05.587Z,42.90
2019-05-03T15:39:35.045Z,42.60
2019-05-03T15:42:05.287Z,42.70
2019-05-03T15:44:54.582Z,42.40
2019-05-03T15:47:28.533Z,42.60
2019-05-03T15:50:00.027Z,42.80
2019-05-03T15:52:30.182Z,42.70
2019-05-03T15:54:59.318Z,42.80
2019-05-03T15:57:28.443Z,42.80
2019-05-03T15:59:58.298Z,42.20
2019-05-03T16:02:27.476Z,42.80
2019-05-03T16:04:58.738Z,43.40
2019-05-03T16:07:27.695Z,43.20
2019-05-03T16:09:56.822Z,42.20
2019-05-03T16:12:25.964Z,42.60
2019-05-03T16:14:55.261Z,42.20
2019-05-03T16:17:24.560Z,42.10
2019-05-03T16:19:55.616Z,41.70
2019-05-03T16:22:25.588Z,42.80
2019-05-03T16:24:55.699Z,41.70
2019-05-03T16:27:29.111Z,41.60
2019-05-03T16:29:59.828Z,41.50
2019-05-03T16:32:31.644Z,41.80
2019-05-03T16:35:01.331Z,41.60
2019-05-03T16:37:30.940Z,42.20
2019-05-03T16:40:01.031Z,42.00
2019-05-03T16:42:30.236Z,41.20
2019-05-03T16:44:59.369Z,41.50
2019-05-03T16:47:28.478Z,40.70
2019-05-03T16:49:57.619Z,41.70
2019-05-03T16:52:26.753Z,41.10
2019-05-03T16:54:55.881Z,41.80
2019-05-03T16:57:25.015Z,41.10
2019-05-03T16:59:55.161Z,40.90
2019-05-03T17:02:24.654Z,41.10
2019-05-03T17:04:55.845Z,41.40
2019-05-03T17:07:26.692Z,41.20
2019-05-03T17:10:00.121Z,41.40
2019-05-03T17:12:35.235Z,42.50
2019-05-03T17:15:06.869Z,41.80
2019-05-03T17:17:36.007Z,42.10
2019-05-03T17:20:06.819Z,42.40
2019-05-03T17:22:35.953Z,42.60
2019-05-03T17:25:06.550Z,42.90
2019-05-03T17:27:36.119Z,43.60
2019-05-03T17:30:07.970Z,43.30
2019-05-03T17:32:37.184Z,43.80
2019-05-03T17:35:06.787Z,43.60
2019-05-03T17:37:35.924Z,44.10
2019-05-03T17:40:10.633Z,43.60
2019-05-03T17:42:45.226Z,43.80
2019-05-03T17:45:16.090Z,43.80
2019-05-03T17:47:45.473Z,44.70
2019-05-03T17:50:14.843Z,44.90
2019-05-03T17:52:51.478Z,45.40
2019-05-03T17:55:39.757Z,45.10
2019-05-03T17:58:15.100Z,44.00
2019-05-03T18:01:02.576Z,43.80
2019-05-03T18:03:42.437Z,44.30
2019-05-03T18:06:19.369Z,44.00
2019-05-03T18:08:50.119Z,44.70
2019-05-03T18:11:27.315Z,45.00
2019-05-03T18:13:56.428Z,44.80
2019-05-03T18:16:25.875Z,44.90
2019-05-03T18:18:54.991Z,45.10
2019-05-03T18:21:25.394Z,45.70
2019-05-03T18:23:55.002Z,45.80
2019-05-03T18:26:24.933Z,46.00
2019-05-03T18:28:55.384Z,45.80
2019-05-03T18:31:25.035Z,46.10
2019-05-03T18:33:54.764Z,45.50
2019-05-03T18:36:25.292Z,45.90
2019-05-03T18:38:55.226Z,46.30
2019-05-03T18:41:25.486Z,46.10
2019-05-03T18:43:59.326Z,46.00
2019-05-03T18:46:35.846Z,46.60
2019-05-03T18:49:04.975Z,46.60
2019-05-03T18:51:34.366Z,46.80
2019-05-03T18:54:07.073Z,47.10
2019-05-03T18:56:34.900Z,47.40
2019-05-03T18:59:05.119Z,47.40
2019-05-03T19:01:34.872Z,47.70
2019-05-03T19:04:17.601Z,47.70
2019-05-03T19:06:46.736Z,48.10
2019-05-03T19:09:26.664Z,48.50
2019-05-03T19:12:04.820Z,48.80
2019-05-03T19:14:34.094Z,48.90
2019-05-03T19:17:11.979Z,49.10
2019-05-03T19:19:45.532Z,49.30
2019-05-03T19:22:15.371Z,49.30
2019-05-03T19:24:44.909Z,49.50
2019-05-03T19:27:14.132Z,50.00
2019-05-03T19:29:44.877Z,50.10
2019-05-03T19:32:14.991Z,50.10
2019-05-03T19:34:50.741Z,49.90
2019-05-03T19:37:15.124Z,50.40
2019-05-03T19:39:44.326Z,50.30
2019-05-03T19:42:13.456Z,50.70
2019-05-03T19:44:42.596Z,50.60
2019-05-03T19:47:11.712Z,50.70
2019-05-03T19:49:40.842Z,51.00
2019-05-03T19:52:12.172Z,51.20
2019-05-03T19:54:41.295Z,51.30
2019-05-03T19:57:12.102Z,51.70
2019-05-03T19:59:51.795Z,51.80
2019-05-03T20:02:24.364Z,51.80
2019-05-03T20:05:00.622Z,51.90
2019-05-03T20:07:34.555Z,52.10
2019-05-03T20:10:06.587Z,52.50
2019-05-03T20:12:35.723Z,52.90
2019-05-03T20:15:05.677Z,52.80
2019-05-03T20:17:34.802Z,53.00
2019-05-03T20:20:06.270Z,53.10
2019-05-03T20:22:35.392Z,53.10
2019-05-03T20:25:05.563Z,53.30
2019-05-03T20:27:35.313Z,53.40
2019-05-03T20:30:06.410Z,53.50
2019-05-03T20:32:35.691Z,53.60
2019-05-03T20:35:16.741Z,53.60
2019-05-03T20:37:39.252Z,54.50
2019-05-03T20:40:08.394Z,54.40
2019-05-03T20:42:54.460Z,54.20
2019-05-03T20:45:38.060Z,54.40
2019-05-03T20:48:11.779Z,54.20
2019-05-03T20:50:40.908Z,53.80
2019-05-03T20:53:10.026Z,54.00
2019-05-03T20:55:39.154Z,54.00
2019-05-03T20:58:11.360Z,53.70
2019-05-03T21:00:40.080Z,54.20
2019-05-03T21:03:09.190Z,54.20
2019-05-03T21:05:38.899Z,54.20
2019-05-03T21:08:08.289Z,54.10
2019-05-03T21:10:38.239Z,54.20
2019-05-03T21:13:08.770Z,54.30
2019-05-03T21:15:54.895Z,54.10
2019-05-03T21:18:34.633Z,53.50
2019-05-03T21:21:11.680Z,54.50
2019-05-03T21:23:45.395Z,54.70
2019-05-03T21:26:16.651Z,54.90
2019-05-03T21:28:45.999Z,55.10
2019-05-03T21:31:15.677Z,55.10
2019-05-03T21:33:45.603Z,54.80
2019-05-03T21:36:15.104Z,54.90
2019-05-03T21:38:44.525Z,55.00
2019-05-03T21:41:34.938Z,54.70
2019-05-03T21:44:05.378Z,55.00
2019-05-03T21:46:38.879Z,54.80
2019-05-03T21:49:09.634Z,54.80
2019-05-03T21:51:38.764Z,55.40
2019-05-03T21:54:07.908Z,55.60
2019-05-03T21:56:37.044Z,55.30
2019-05-03T21:59:06.167Z,55.40
2019-05-03T22:01:37.494Z,55.60
2019-05-03T22:04:06.922Z,55.70
2019-05-03T22:06:36.038Z,55.80
2019-05-03T22:09:05.799Z,55.90
2019-05-03T22:11:36.092Z,57.00
2019-05-03T22:14:06.868Z,56.10
